sensor_id;sensor_type;location;lat;lon;timestamp;P1;durP1;ratioP1;P2;durP2;ratioP2
25758;SDS011;13604;52.496;13.456;2023-06-04T00:01:51;3.25;;;2.00;;
25758;SDS011;13604;52.496;13.456;2023-06-04T00:04:16;3.63;;;2.00;;
25758;SDS011;13604;52.496;13.456;2023-06-04T00:06:42;4.70;;;2.10;;
25758;SDS011;13604;52.496;13.456;2023-06-04T00:09:07;4.63;;;2.15;;
25758;SDS011;13604;52.496;13.456;2023-06-04T00:11:32;4.30;;;1.77;;
25758;SDS011;13604;52.496;13.456;2023-06-04T00:13:58;6.22;;;2.15;;
25758;SDS011;13604;52.496;13.456;2023-06-04T00:16:25;2.53;;;1.35;;
25758;SDS011;13604;52.496;13.456;2023-06-04T00:18:50;1.95;;;1.38;;
25758;SDS011;13604;52.496;13.456;2023-06-04T00:21:15;3.97;;;1.90;;
25758;SDS011;13604;52.496;13.456;2023-06-04T00:23:41;3.17;;;1.73;;
25758;SDS011;13604;52.496;13.456;2023-06-04T00:26:07;5.70;;;2.20;;
25758;SDS011;13604;52.496;13.456;2023-06-04T00:28:32;2.85;;;1.70;;
25758;SDS011;13604;52.496;13.456;2023-06-04T00:30:58;2.75;;;1.80;;
25758;SDS011;13604;52.496;13.456;2023-06-04T00:33:24;4.03;;;1.80;;
25758;SDS011;13604;52.496;13.456;2023-06-04T00:35:49;8.05;;;1.80;;
25758;SDS011;13604;52.496;13.456;2023-06-04T00:38:14;3.08;;;1.67;;
25758;SDS011;13604;52.496;13.456;2023-06-04T00:40:40;3.28;;;1.70;;
25758;SDS011;13604;52.496;13.456;2023-06-04T00:43:05;6.25;;;1.88;;
25758;SDS011;13604;52.496;13.456;2023-06-04T00:45:31;5.35;;;1.70;;
25758;SDS011;13604;52.496;13.456;2023-06-04T00:47:56;3.05;;;1.50;;
25758;SDS011;13604;52.496;13.456;2023-06-04T00:50:22;1.63;;;1.25;;
25758;SDS011;13604;52.496;13.456;2023-06-04T00:52:49;2.25;;;1.50;;
25758;SDS011;13604;52.496;13.456;2023-06-04T00:55:16;2.47;;;1.60;;
25758;SDS011;13604;52.496;13.456;2023-06-04T00:57:43;4.15;;;1.92;;
25758;SDS011;13604;52.496;13.456;2023-06-04T01:00:09;3.40;;;1.70;;
25758;SDS011;13604;52.496;13.456;2023-06-04T01:02:35;3.88;;;1.80;;
25758;SDS011;13604;52.496;13.456;2023-06-04T01:05:07;2.42;;;1.98;;
25758;SDS011;13604;52.496;13.456;2023-06-04T01:07:39;2.72;;;2.00;;
25758;SDS011;13604;52.496;13.456;2023-06-04T01:10:06;4.03;;;1.63;;
25758;SDS011;13604;52.496;13.456;2023-06-04T01:12:31;2.13;;;1.50;;
25758;SDS011;13604;52.496;13.456;2023-06-04T01:14:57;2.30;;;1.50;;
25758;SDS011;13604;52.496;13.456;2023-06-04T01:17:23;2.65;;;1.52;;
25758;SDS011;13604;52.496;13.456;2023-06-04T01:20:12;3.88;;;2.25;;
25758;SDS011;13604;52.496;13.456;2023-06-04T01:22:48;2.17;;;1.50;;
25758;SDS011;13604;52.496;13.456;2023-06-04T01:25:28;2.75;;;1.73;;
25758;SDS011;13604;52.496;13.456;2023-06-04T01:27:59;3.40;;;1.70;;
25758;SDS011;13604;52.496;13.456;2023-06-04T01:30:28;2.65;;;1.65;;
25758;SDS011;13604;52.496;13.456;2023-06-04T01:32:57;3.88;;;2.05;;
25758;SDS011;13604;52.496;13.456;2023-06-04T01:35:23;3.05;;;1.70;;
25758;SDS011;13604;52.496;13.456;2023-06-04T01:37:49;2.28;;;1.33;;
25758;SDS011;13604;52.496;13.456;2023-06-04T01:40:14;4.28;;;1.50;;
25758;SDS011;13604;52.496;13.456;2023-06-04T01:42:41;3.03;;;1.70;;
25758;SDS011;13604;52.496;13.456;2023-06-04T01:45:10;4.97;;;1.73;;
25758;SDS011;13604;52.496;13.456;2023-06-04T01:47:35;3.35;;;1.75;;
25758;SDS011;13604;52.496;13.456;2023-06-04T01:50:05;2.13;;;1.67;;
25758;SDS011;13604;52.496;13.456;2023-06-04T01:52:38;3.70;;;1.98;;
25758;SDS011;13604;52.496;13.456;2023-06-04T01:55:05;2.97;;;1.70;;
25758;SDS011;13604;52.496;13.456;2023-06-04T01:57:32;2.22;;;1.63;;
25758;SDS011;13604;52.496;13.456;2023-06-04T01:59:58;5.30;;;2.13;;
25758;SDS011;13604;52.496;13.456;2023-06-04T02:02:24;5.47;;;1.70;;
25758;SDS011;13604;52.496;13.456;2023-06-04T02:04:50;4.13;;;1.98;;
25758;SDS011;13604;52.496;13.456;2023-06-04T02:07:17;5.07;;;1.83;;
25758;SDS011;13604;52.496;13.456;2023-06-04T02:09:45;4.40;;;1.92;;
25758;SDS011;13604;52.496;13.456;2023-06-04T02:12:15;4.47;;;1.70;;
25758;SDS011;13604;52.496;13.456;2023-06-04T02:14:41;2.28;;;1.50;;
25758;SDS011;13604;52.496;13.456;2023-06-04T02:17:07;3.38;;;1.80;;
25758;SDS011;13604;52.496;13.456;2023-06-04T02:19:41;3.42;;;2.35;;
25758;SDS011;13604;52.496;13.456;2023-06-04T02:22:15;5.78;;;2.25;;
25758;SDS011;13604;52.496;13.456;2023-06-04T02:24:41;2.42;;;1.98;;
25758;SDS011;13604;52.496;13.456;2023-06-04T02:27:09;3.63;;;1.88;;
25758;SDS011;13604;52.496;13.456;2023-06-04T02:29:37;3.10;;;2.05;;
25758;SDS011;13604;52.496;13.456;2023-06-04T02:32:03;6.15;;;2.00;;
25758;SDS011;13604;52.496;13.456;2023-06-04T02:34:29;5.32;;;1.92;;
25758;SDS011;13604;52.496;13.456;2023-06-04T02:36:54;3.00;;;1.92;;
25758;SDS011;13604;52.496;13.456;2023-06-04T02:39:20;2.72;;;2.00;;
25758;SDS011;13604;52.496;13.456;2023-06-04T02:41:45;4.28;;;2.28;;
25758;SDS011;13604;52.496;13.456;2023-06-04T02:44:11;3.30;;;1.60;;
25758;SDS011;13604;52.496;13.456;2023-06-04T02:46:36;4.90;;;1.80;;
25758;SDS011;13604;52.496;13.456;2023-06-04T02:49:02;6.32;;;1.77;;
25758;SDS011;13604;52.496;13.456;2023-06-04T02:51:28;3.17;;;1.90;;
25758;SDS011;13604;52.496;13.456;2023-06-04T02:53:53;3.92;;;1.85;;
25758;SDS011;13604;52.496;13.456;2023-06-04T02:56:19;9.55;;;2.30;;
25758;SDS011;13604;52.496;13.456;2023-06-04T02:58:49;3.53;;;1.85;;
25758;SDS011;13604;52.496;13.456;2023-06-04T03:01:21;3.53;;;1.92;;
25758;SDS011;13604;52.496;13.456;2023-06-04T03:03:51;3.45;;;1.75;;
25758;SDS011;13604;52.496;13.456;2023-06-04T03:06:18;10.85;;;2.30;;
25758;SDS011;13604;52.496;13.456;2023-06-04T03:08:48;4.20;;;2.20;;
25758;SDS011;13604;52.496;13.456;2023-06-04T03:11:17;4.00;;;2.45;;
25758;SDS011;13604;52.496;13.456;2023-06-04T03:13:44;4.40;;;2.38;;
25758;SDS011;13604;52.496;13.456;2023-06-04T03:16:09;7.40;;;2.50;;
25758;SDS011;13604;52.496;13.456;2023-06-04T03:18:36;7.07;;;2.60;;
25758;SDS011;13604;52.496;13.456;2023-06-04T03:21:02;5.10;;;2.55;;
25758;SDS011;13604;52.496;13.456;2023-06-04T03:23:28;4.95;;;2.10;;
25758;SDS011;13604;52.496;13.456;2023-06-04T03:25:54;5.28;;;2.70;;
25758;SDS011;13604;52.496;13.456;2023-06-04T03:28:19;5.30;;;2.47;;
25758;SDS011;13604;52.496;13.456;2023-06-04T03:30:45;3.75;;;2.47;;
25758;SDS011;13604;52.496;13.456;2023-06-04T03:33:10;5.45;;;2.63;;
25758;SDS011;13604;52.496;13.456;2023-06-04T03:35:35;7.20;;;2.70;;
25758;SDS011;13604;52.496;13.456;2023-06-04T03:38:01;6.82;;;2.35;;
25758;SDS011;13604;52.496;13.456;2023-06-04T03:40:26;5.13;;;2.28;;
25758;SDS011;13604;52.496;13.456;2023-06-04T03:42:51;3.20;;;2.20;;
25758;SDS011;13604;52.496;13.456;2023-06-04T03:45:17;4.78;;;2.10;;
25758;SDS011;13604;52.496;13.456;2023-06-04T03:47:42;5.28;;;2.38;;
25758;SDS011;13604;52.496;13.456;2023-06-04T03:50:08;3.22;;;1.95;;
25758;SDS011;13604;52.496;13.456;2023-06-04T03:52:33;5.53;;;2.35;;
25758;SDS011;13604;52.496;13.456;2023-06-04T03:54:58;3.42;;;2.00;;
25758;SDS011;13604;52.496;13.456;2023-06-04T03:57:24;4.57;;;2.20;;
25758;SDS011;13604;52.496;13.456;2023-06-04T03:59:49;3.47;;;1.90;;
25758;SDS011;13604;52.496;13.456;2023-06-04T04:02:15;4.50;;;1.90;;
25758;SDS011;13604;52.496;13.456;2023-06-04T04:04:42;9.68;;;2.10;;
25758;SDS011;13604;52.496;13.456;2023-06-04T04:07:07;4.72;;;1.80;;
25758;SDS011;13604;52.496;13.456;2023-06-04T04:09:32;3.80;;;2.00;;
25758;SDS011;13604;52.496;13.456;2023-06-04T04:11:58;3.00;;;2.00;;
25758;SDS011;13604;52.496;13.456;2023-06-04T04:14:23;2.78;;;1.80;;
25758;SDS011;13604;52.496;13.456;2023-06-04T04:16:48;3.38;;;1.77;;
25758;SDS011;13604;52.496;13.456;2023-06-04T04:19:14;2.30;;;1.58;;
25758;SDS011;13604;52.496;13.456;2023-06-04T04:21:40;4.40;;;1.90;;
25758;SDS011;13604;52.496;13.456;2023-06-04T04:24:06;6.15;;;2.15;;
25758;SDS011;13604;52.496;13.456;2023-06-04T04:26:32;3.67;;;2.17;;
25758;SDS011;13604;52.496;13.456;2023-06-04T04:28:57;5.40;;;2.28;;
25758;SDS011;13604;52.496;13.456;2023-06-04T04:31:25;7.10;;;2.00;;
25758;SDS011;13604;52.496;13.456;2023-06-04T04:33:55;3.63;;;1.83;;
25758;SDS011;13604;52.496;13.456;2023-06-04T04:36:21;3.35;;;2.10;;
25758;SDS011;13604;52.496;13.456;2023-06-04T04:38:46;2.80;;;1.70;;
25758;SDS011;13604;52.496;13.456;2023-06-04T04:41:18;4.70;;;1.70;;
25758;SDS011;13604;52.496;13.456;2023-06-04T04:43:45;4.22;;;1.85;;
25758;SDS011;13604;52.496;13.456;2023-06-04T04:46:11;3.13;;;1.83;;
25758;SDS011;13604;52.496;13.456;2023-06-04T04:48:36;4.57;;;1.77;;
25758;SDS011;13604;52.496;13.456;2023-06-04T04:51:03;2.92;;;2.00;;
25758;SDS011;13604;52.496;13.456;2023-06-04T04:53:28;4.75;;;2.00;;
25758;SDS011;13604;52.496;13.456;2023-06-04T04:55:54;4.38;;;2.15;;
25758;SDS011;13604;52.496;13.456;2023-06-04T04:58:20;3.92;;;1.73;;
25758;SDS011;13604;52.496;13.456;2023-06-04T05:00:45;2.67;;;1.45;;
25758;SDS011;13604;52.496;13.456;2023-06-04T05:03:13;6.13;;;1.50;;
25758;SDS011;13604;52.496;13.456;2023-06-04T05:05:39;3.08;;;1.77;;
25758;SDS011;13604;52.496;13.456;2023-06-04T05:08:05;2.78;;;1.80;;
25758;SDS011;13604;52.496;13.456;2023-06-04T05:10:30;3.72;;;1.70;;
25758;SDS011;13604;52.496;13.456;2023-06-04T05:12:57;1.83;;;1.40;;
25758;SDS011;13604;52.496;13.456;2023-06-04T05:15:25;4.82;;;1.70;;
25758;SDS011;13604;52.496;13.456;2023-06-04T05:17:51;2.42;;;1.70;;
25758;SDS011;13604;52.496;13.456;2023-06-04T05:20:17;3.00;;;1.60;;
25758;SDS011;13604;52.496;13.456;2023-06-04T05:22:44;5.18;;;2.13;;
25758;SDS011;13604;52.496;13.456;2023-06-04T05:25:10;4.47;;;1.90;;
25758;SDS011;13604;52.496;13.456;2023-06-04T05:27:36;3.72;;;1.60;;
25758;SDS011;13604;52.496;13.456;2023-06-04T05:30:05;2.65;;;1.23;;
25758;SDS011;13604;52.496;13.456;2023-06-04T05:32:31;4.35;;;1.60;;
25758;SDS011;13604;52.496;13.456;2023-06-04T05:34:58;3.35;;;1.58;;
25758;SDS011;13604;52.496;13.456;2023-06-04T05:37:25;5.10;;;1.50;;
25758;SDS011;13604;52.496;13.456;2023-06-04T05:39:57;3.00;;;1.42;;
25758;SDS011;13604;52.496;13.456;2023-06-04T05:42:22;3.97;;;1.90;;
25758;SDS011;13604;52.496;13.456;2023-06-04T05:44:48;5.07;;;1.75;;
25758;SDS011;13604;52.496;13.456;2023-06-04T05:47:15;3.33;;;1.85;;
25758;SDS011;13604;52.496;13.456;2023-06-04T05:49:41;3.72;;;1.80;;
25758;SDS011;13604;52.496;13.456;2023-06-04T05:52:07;3.53;;;1.80;;
25758;SDS011;13604;52.496;13.456;2023-06-04T05:54:33;5.65;;;1.90;;
25758;SDS011;13604;52.496;13.456;2023-06-04T05:56:58;3.22;;;1.67;;
25758;SDS011;13604;52.496;13.456;2023-06-04T05:59:23;4.43;;;1.73;;
25758;SDS011;13604;52.496;13.456;2023-06-04T06:01:49;2.17;;;1.70;;
25758;SDS011;13604;52.496;13.456;2023-06-04T06:04:15;3.78;;;1.80;;
25758;SDS011;13604;52.496;13.456;2023-06-04T06:06:40;6.28;;;2.03;;
25758;SDS011;13604;52.496;13.456;2023-06-04T06:09:09;2.05;;;1.10;;
25758;SDS011;13604;52.496;13.456;2023-06-04T06:11:35;4.50;;;1.80;;
25758;SDS011;13604;52.496;13.456;2023-06-04T06:14:01;3.45;;;1.55;;
25758;SDS011;13604;52.496;13.456;2023-06-04T06:16:26;4.40;;;1.67;;
25758;SDS011;13604;52.496;13.456;2023-06-04T06:18:52;3.45;;;1.75;;
25758;SDS011;13604;52.496;13.456;2023-06-04T06:21:18;3.83;;;2.05;;
25758;SDS011;13604;52.496;13.456;2023-06-04T06:23:43;2.90;;;1.52;;
25758;SDS011;13604;52.496;13.456;2023-06-04T06:26:09;5.30;;;1.60;;
25758;SDS011;13604;52.496;13.456;2023-06-04T06:28:35;12.75;;;1.55;;
25758;SDS011;13604;52.496;13.456;2023-06-04T06:31:01;6.45;;;1.67;;
25758;SDS011;13604;52.496;13.456;2023-06-04T06:33:27;3.90;;;1.48;;
25758;SDS011;13604;52.496;13.456;2023-06-04T06:35:52;3.53;;;1.77;;
25758;SDS011;13604;52.496;13.456;2023-06-04T06:38:18;4.22;;;1.38;;
25758;SDS011;13604;52.496;13.456;2023-06-04T06:40:43;4.72;;;1.50;;
25758;SDS011;13604;52.496;13.456;2023-06-04T06:43:08;6.38;;;2.13;;
25758;SDS011;13604;52.496;13.456;2023-06-04T06:45:35;4.22;;;1.52;;
25758;SDS011;13604;52.496;13.456;2023-06-04T06:48:01;3.00;;;1.40;;
25758;SDS011;13604;52.496;13.456;2023-06-04T06:50:26;3.67;;;1.70;;
25758;SDS011;13604;52.496;13.456;2023-06-04T06:52:51;4.97;;;2.08;;
25758;SDS011;13604;52.496;13.456;2023-06-04T06:55:17;2.38;;;1.42;;
25758;SDS011;13604;52.496;13.456;2023-06-04T06:57:42;3.90;;;1.60;;
25758;SDS011;13604;52.496;13.456;2023-06-04T07:00:08;2.45;;;1.55;;
25758;SDS011;13604;52.496;13.456;2023-06-04T07:02:34;2.70;;;1.08;;
25758;SDS011;13604;52.496;13.456;2023-06-04T07:04:59;3.95;;;1.40;;
25758;SDS011;13604;52.496;13.456;2023-06-04T07:07:25;1.90;;;1.00;;
25758;SDS011;13604;52.496;13.456;2023-06-04T07:09:51;1.20;;;1.10;;
25758;SDS011;13604;52.496;13.456;2023-06-04T07:12:17;4.72;;;1.40;;
25758;SDS011;13604;52.496;13.456;2023-06-04T07:14:42;3.63;;;1.10;;
25758;SDS011;13604;52.496;13.456;2023-06-04T07:17:07;1.23;;;0.88;;
25758;SDS011;13604;52.496;13.456;2023-06-04T07:19:33;5.07;;;1.40;;
25758;SDS011;13604;52.496;13.456;2023-06-04T07:21:58;2.22;;;1.08;;
25758;SDS011;13604;52.496;13.456;2023-06-04T07:24:24;4.70;;;1.40;;
25758;SDS011;13604;52.496;13.456;2023-06-04T07:26:49;7.07;;;1.40;;
25758;SDS011;13604;52.496;13.456;2023-06-04T07:29:14;2.45;;;0.90;;
25758;SDS011;13604;52.496;13.456;2023-06-04T07:31:40;4.95;;;1.13;;
25758;SDS011;13604;52.496;13.456;2023-06-04T07:34:07;5.35;;;1.45;;
25758;SDS011;13604;52.496;13.456;2023-06-04T07:36:33;2.75;;;1.27;;
25758;SDS011;13604;52.496;13.456;2023-06-04T07:38:58;1.90;;;0.85;;
25758;SDS011;13604;52.496;13.456;2023-06-04T07:41:24;2.75;;;1.35;;
25758;SDS011;13604;52.496;13.456;2023-06-04T07:43:51;2.80;;;0.90;;
25758;SDS011;13604;52.496;13.456;2023-06-04T07:46:16;7.20;;;1.27;;
25758;SDS011;13604;52.496;13.456;2023-06-04T07:48:43;2.38;;;1.20;;
25758;SDS011;13604;52.496;13.456;2023-06-04T07:51:09;3.63;;;0.75;;
25758;SDS011;13604;52.496;13.456;2023-06-04T07:53:36;3.15;;;0.95;;
25758;SDS011;13604;52.496;13.456;2023-06-04T07:56:02;3.60;;;1.17;;
25758;SDS011;13604;52.496;13.456;2023-06-04T07:58:28;1.45;;;0.93;;
25758;SDS011;13604;52.496;13.456;2023-06-04T08:00:54;1.15;;;1.00;;
25758;SDS011;13604;52.496;13.456;2023-06-04T08:03:20;2.90;;;1.15;;
25758;SDS011;13604;52.496;13.456;2023-06-04T08:05:46;1.75;;;1.23;;
25758;SDS011;13604;52.496;13.456;2023-06-04T08:08:11;4.47;;;1.00;;
25758;SDS011;13604;52.496;13.456;2023-06-04T08:10:36;2.13;;;0.60;;
25758;SDS011;13604;52.496;13.456;2023-06-04T08:13:02;2.13;;;0.80;;
25758;SDS011;13604;52.496;13.456;2023-06-04T08:15:27;4.18;;;1.00;;
25758;SDS011;13604;52.496;13.456;2023-06-04T08:17:52;2.58;;;0.80;;
25758;SDS011;13604;52.496;13.456;2023-06-04T08:20:18;2.90;;;1.05;;
25758;SDS011;13604;52.496;13.456;2023-06-04T08:22:43;1.13;;;0.82;;
25758;SDS011;13604;52.496;13.456;2023-06-04T08:25:08;1.95;;;0.82;;
25758;SDS011;13604;52.496;13.456;2023-06-04T08:27:34;1.33;;;1.10;;
25758;SDS011;13604;52.496;13.456;2023-06-04T08:30:00;2.25;;;1.13;;
25758;SDS011;13604;52.496;13.456;2023-06-04T08:32:26;1.58;;;0.90;;
25758;SDS011;13604;52.496;13.456;2023-06-04T08:34:52;4.05;;;1.20;;
25758;SDS011;13604;52.496;13.456;2023-06-04T08:37:17;1.27;;;0.88;;
25758;SDS011;13604;52.496;13.456;2023-06-04T08:39:43;3.08;;;0.90;;
25758;SDS011;13604;52.496;13.456;2023-06-04T08:42:09;1.65;;;0.75;;
25758;SDS011;13604;52.496;13.456;2023-06-04T08:44:44;1.73;;;0.90;;
25758;SDS011;13604;52.496;13.456;2023-06-04T08:47:11;2.80;;;0.90;;
25758;SDS011;13604;52.496;13.456;2023-06-04T08:49:40;1.75;;;0.63;;
25758;SDS011;13604;52.496;13.456;2023-06-04T08:52:06;3.10;;;1.10;;
25758;SDS011;13604;52.496;13.456;2023-06-04T08:54:32;2.80;;;0.90;;
25758;SDS011;13604;52.496;13.456;2023-06-04T08:56:58;1.73;;;1.13;;
25758;SDS011;13604;52.496;13.456;2023-06-04T08:59:25;1.67;;;0.77;;
25758;SDS011;13604;52.496;13.456;2023-06-04T09:01:56;1.23;;;0.73;;
25758;SDS011;13604;52.496;13.456;2023-06-04T09:04:22;2.95;;;1.08;;
25758;SDS011;13604;52.496;13.456;2023-06-04T09:06:47;1.02;;;0.90;;
25758;SDS011;13604;52.496;13.456;2023-06-04T09:09:14;2.72;;;1.00;;
25758;SDS011;13604;52.496;13.456;2023-06-04T09:11:46;1.35;;;0.63;;
25758;SDS011;13604;52.496;13.456;2023-06-04T09:14:17;2.88;;;0.98;;
25758;SDS011;13604;52.496;13.456;2023-06-04T09:16:47;7.13;;;1.35;;
25758;SDS011;13604;52.496;13.456;2023-06-04T09:19:14;3.03;;;1.10;;
25758;SDS011;13604;52.496;13.456;2023-06-04T09:21:47;4.25;;;1.10;;
25758;SDS011;13604;52.496;13.456;2023-06-04T09:24:17;0.80;;;0.73;;
25758;SDS011;13604;52.496;13.456;2023-06-04T09:26:43;3.20;;;1.10;;
25758;SDS011;13604;52.496;13.456;2023-06-04T09:29:08;1.15;;;1.05;;
25758;SDS011;13604;52.496;13.456;2023-06-04T09:31:34;1.15;;;0.93;;
25758;SDS011;13604;52.496;13.456;2023-06-04T09:34:04;2.28;;;0.85;;
25758;SDS011;13604;52.496;13.456;2023-06-04T09:36:30;5.13;;;1.10;;
25758;SDS011;13604;52.496;13.456;2023-06-04T09:38:56;3.22;;;0.85;;
25758;SDS011;13604;52.496;13.456;2023-06-04T09:41:22;0.75;;;0.75;;
25758;SDS011;13604;52.496;13.456;2023-06-04T09:43:47;2.80;;;1.00;;
25758;SDS011;13604;52.496;13.456;2023-06-04T09:46:13;1.70;;;0.88;;
25758;SDS011;13604;52.496;13.456;2023-06-04T09:48:44;1.67;;;1.10;;
25758;SDS011;13604;52.496;13.456;2023-06-04T09:51:11;1.88;;;1.13;;
25758;SDS011;13604;52.496;13.456;2023-06-04T09:53:38;3.95;;;1.30;;
25758;SDS011;13604;52.496;13.456;2023-06-04T09:56:04;2.45;;;1.08;;
25758;SDS011;13604;52.496;13.456;2023-06-04T09:58:36;2.05;;;0.93;;
25758;SDS011;13604;52.496;13.456;2023-06-04T10:01:04;1.00;;;1.00;;
25758;SDS011;13604;52.496;13.456;2023-06-04T10:03:36;3.42;;;0.90;;
25758;SDS011;13604;52.496;13.456;2023-06-04T10:06:02;1.88;;;1.25;;
25758;SDS011;13604;52.496;13.456;2023-06-04T10:08:29;1.15;;;1.05;;
25758;SDS011;13604;52.496;13.456;2023-06-04T10:10:56;1.98;;;0.93;;
25758;SDS011;13604;52.496;13.456;2023-06-04T10:13:26;1.85;;;0.98;;
25758;SDS011;13604;52.496;13.456;2023-06-04T10:15:56;2.53;;;1.05;;
25758;SDS011;13604;52.496;13.456;2023-06-04T10:18:23;3.70;;;0.98;;
25758;SDS011;13604;52.496;13.456;2023-06-04T10:20:52;3.08;;;0.93;;
25758;SDS011;13604;52.496;13.456;2023-06-04T10:23:19;4.90;;;1.00;;
25758;SDS011;13604;52.496;13.456;2023-06-04T10:25:46;1.50;;;1.40;;
25758;SDS011;13604;52.496;13.456;2023-06-04T10:28:20;1.77;;;1.13;;
25758;SDS011;13604;52.496;13.456;2023-06-04T10:30:46;4.07;;;1.15;;
25758;SDS011;13604;52.496;13.456;2023-06-04T10:33:15;4.35;;;0.98;;
25758;SDS011;13604;52.496;13.456;2023-06-04T10:35:41;1.38;;;0.98;;
25758;SDS011;13604;52.496;13.456;2023-06-04T10:38:08;1.83;;;1.02;;
25758;SDS011;13604;52.496;13.456;2023-06-04T10:40:35;3.22;;;1.30;;
25758;SDS011;13604;52.496;13.456;2023-06-04T10:43:05;2.88;;;0.95;;
25758;SDS011;13604;52.496;13.456;2023-06-04T10:45:34;3.97;;;1.20;;
25758;SDS011;13604;52.496;13.456;2023-06-04T10:48:00;1.40;;;1.13;;
25758;SDS011;13604;52.496;13.456;2023-06-04T10:50:29;6.75;;;1.13;;
25758;SDS011;13604;52.496;13.456;2023-06-04T10:52:56;3.88;;;1.00;;
25758;SDS011;13604;52.496;13.456;2023-06-04T10:55:23;7.10;;;1.13;;
25758;SDS011;13604;52.496;13.456;2023-06-04T11:00:21;3.53;;;1.00;;
25758;SDS011;13604;52.496;13.456;2023-06-04T11:02:54;2.20;;;0.90;;
25758;SDS011;13604;52.496;13.456;2023-06-04T11:05:20;3.65;;;1.08;;
25758;SDS011;13604;52.496;13.456;2023-06-04T11:07:47;1.35;;;1.08;;
25758;SDS011;13604;52.496;13.456;2023-06-04T11:10:14;1.02;;;0.90;;
25758;SDS011;13604;52.496;13.456;2023-06-04T11:12:43;2.53;;;1.13;;
25758;SDS011;13604;52.496;13.456;2023-06-04T11:15:14;2.50;;;1.08;;
25758;SDS011;13604;52.496;13.456;2023-06-04T11:17:55;1.38;;;0.90;;
25758;SDS011;13604;52.496;13.456;2023-06-04T11:20:23;2.20;;;0.90;;
25758;SDS011;13604;52.496;13.456;2023-06-04T11:22:53;3.80;;;1.23;;
25758;SDS011;13604;52.496;13.456;2023-06-04T11:25:23;1.85;;;1.20;;
25758;SDS011;13604;52.496;13.456;2023-06-04T11:27:51;0.80;;;0.80;;
25758;SDS011;13604;52.496;13.456;2023-06-04T11:30:17;3.15;;;1.10;;
25758;SDS011;13604;52.496;13.456;2023-06-04T11:32:46;2.47;;;1.10;;
25758;SDS011;13604;52.496;13.456;2023-06-04T11:35:11;1.33;;;0.90;;
25758;SDS011;13604;52.496;13.456;2023-06-04T11:37:37;3.03;;;1.10;;
25758;SDS011;13604;52.496;13.456;2023-06-04T11:40:25;3.08;;;1.00;;
25758;SDS011;13604;52.496;13.456;2023-06-04T11:42:51;7.05;;;1.20;;
25758;SDS011;13604;52.496;13.456;2023-06-04T11:45:18;1.15;;;0.93;;
25758;SDS011;13604;52.496;13.456;2023-06-04T11:47:45;1.75;;;0.93;;
25758;SDS011;13604;52.496;13.456;2023-06-04T11:50:12;1.88;;;1.10;;
25758;SDS011;13604;52.496;13.456;2023-06-04T11:52:39;1.15;;;1.00;;
25758;SDS011;13604;52.496;13.456;2023-06-04T11:55:08;1.20;;;0.90;;
25758;SDS011;13604;52.496;13.456;2023-06-04T11:57:37;3.08;;;1.10;;
25758;SDS011;13604;52.496;13.456;2023-06-04T12:00:05;1.73;;;0.85;;
25758;SDS011;13604;52.496;13.456;2023-06-04T12:02:53;2.33;;;1.08;;
25758;SDS011;13604;52.496;13.456;2023-06-04T12:05:22;2.78;;;1.00;;
25758;SDS011;13604;52.496;13.456;2023-06-04T12:08:03;3.22;;;1.10;;
25758;SDS011;13604;52.496;13.456;2023-06-04T12:10:30;1.23;;;1.13;;
25758;SDS011;13604;52.496;13.456;2023-06-04T12:13:02;2.33;;;1.20;;
25758;SDS011;13604;52.496;13.456;2023-06-04T12:15:28;2.03;;;1.03;;
25758;SDS011;13604;52.496;13.456;2023-06-04T12:17:53;1.13;;;0.80;;
25758;SDS011;13604;52.496;13.456;2023-06-04T12:20:31;3.95;;;1.02;;
25758;SDS011;13604;52.496;13.456;2023-06-04T12:22:58;1.60;;;1.15;;
25758;SDS011;13604;52.496;13.456;2023-06-04T12:25:24;0.97;;;0.80;;
25758;SDS011;13604;52.496;13.456;2023-06-04T12:27:53;5.00;;;1.20;;
25758;SDS011;13604;52.496;13.456;2023-06-04T12:30:18;1.30;;;0.90;;
25758;SDS011;13604;52.496;13.456;2023-06-04T12:32:44;1.17;;;1.00;;
25758;SDS011;13604;52.496;13.456;2023-06-04T12:35:11;2.53;;;1.63;;
25758;SDS011;13604;52.496;13.456;2023-06-04T12:37:36;1.80;;;1.10;;
25758;SDS011;13604;52.496;13.456;2023-06-04T12:40:02;1.23;;;0.93;;
25758;SDS011;13604;52.496;13.456;2023-06-04T12:42:29;3.13;;;1.10;;
25758;SDS011;13604;52.496;13.456;2023-06-04T12:44:55;2.50;;;0.82;;
25758;SDS011;13604;52.496;13.456;2023-06-04T12:47:20;3.03;;;1.13;;
25758;SDS011;13604;52.496;13.456;2023-06-04T12:49:46;1.95;;;1.17;;
25758;SDS011;13604;52.496;13.456;2023-06-04T12:52:11;1.70;;;1.08;;
25758;SDS011;13604;52.496;13.456;2023-06-04T12:54:39;3.97;;;1.40;;
25758;SDS011;13604;52.496;13.456;2023-06-04T12:57:04;1.85;;;1.15;;
25758;SDS011;13604;52.496;13.456;2023-06-04T12:59:30;1.88;;;1.50;;
25758;SDS011;13604;52.496;13.456;2023-06-04T13:01:55;4.20;;;1.20;;
25758;SDS011;13604;52.496;13.456;2023-06-04T13:04:21;1.30;;;1.20;;
25758;SDS011;13604;52.496;13.456;2023-06-04T13:06:49;1.83;;;1.00;;
25758;SDS011;13604;52.496;13.456;2023-06-04T13:09:18;1.33;;;1.10;;
25758;SDS011;13604;52.496;13.456;2023-06-04T13:11:45;7.55;;;1.58;;
25758;SDS011;13604;52.496;13.456;2023-06-04T13:14:10;1.45;;;1.20;;
25758;SDS011;13604;52.496;13.456;2023-06-04T13:16:37;4.60;;;1.43;;
25758;SDS011;13604;52.496;13.456;2023-06-04T13:19:03;1.80;;;1.08;;
25758;SDS011;13604;52.496;13.456;2023-06-04T13:21:28;4.07;;;1.25;;
25758;SDS011;13604;52.496;13.456;2023-06-04T13:23:54;3.38;;;1.20;;
25758;SDS011;13604;52.496;13.456;2023-06-04T13:26:21;2.85;;;1.30;;
25758;SDS011;13604;52.496;13.456;2023-06-04T13:28:47;2.25;;;0.90;;
25758;SDS011;13604;52.496;13.456;2023-06-04T13:31:12;1.57;;;1.10;;
25758;SDS011;13604;52.496;13.456;2023-06-04T13:33:37;2.33;;;1.10;;
25758;SDS011;13604;52.496;13.456;2023-06-04T13:36:03;2.22;;;1.30;;
25758;SDS011;13604;52.496;13.456;2023-06-04T13:38:29;1.38;;;0.93;;
25758;SDS011;13604;52.496;13.456;2023-06-04T13:40:55;2.20;;;1.08;;
25758;SDS011;13604;52.496;13.456;2023-06-04T13:43:20;3.45;;;1.10;;
25758;SDS011;13604;52.496;13.456;2023-06-04T13:45:46;1.38;;;0.90;;
25758;SDS011;13604;52.496;13.456;2023-06-04T13:48:11;4.23;;;1.40;;
25758;SDS011;13604;52.496;13.456;2023-06-04T13:50:37;4.65;;;1.10;;
25758;SDS011;13604;52.496;13.456;2023-06-04T13:53:02;4.00;;;1.20;;
25758;SDS011;13604;52.496;13.456;2023-06-04T13:55:28;4.00;;;1.38;;
25758;SDS011;13604;52.496;13.456;2023-06-04T13:57:56;1.20;;;1.10;;
25758;SDS011;13604;52.496;13.456;2023-06-04T14:00:22;5.47;;;1.90;;
25758;SDS011;13604;52.496;13.456;2023-06-04T14:02:47;4.43;;;1.38;;
25758;SDS011;13604;52.496;13.456;2023-06-04T14:05:13;4.15;;;1.00;;
25758;SDS011;13604;52.496;13.456;2023-06-04T14:07:41;5.07;;;1.30;;
25758;SDS011;13604;52.496;13.456;2023-06-04T14:10:07;1.42;;;1.10;;
25758;SDS011;13604;52.496;13.456;2023-06-04T14:12:33;3.85;;;1.02;;
25758;SDS011;13604;52.496;13.456;2023-06-04T14:14:58;3.20;;;1.30;;
25758;SDS011;13604;52.496;13.456;2023-06-04T14:17:25;2.80;;;1.40;;
25758;SDS011;13604;52.496;13.456;2023-06-04T14:19:50;1.23;;;1.00;;
25758;SDS011;13604;52.496;13.456;2023-06-04T14:22:16;2.63;;;1.20;;
25758;SDS011;13604;52.496;13.456;2023-06-04T14:24:41;3.07;;;1.20;;
25758;SDS011;13604;52.496;13.456;2023-06-04T14:27:07;4.05;;;1.40;;
25758;SDS011;13604;52.496;13.456;2023-06-04T14:29:32;3.47;;;1.30;;
25758;SDS011;13604;52.496;13.456;2023-06-04T14:31:59;2.63;;;1.30;;
25758;SDS011;13604;52.496;13.456;2023-06-04T14:34:24;1.20;;;1.10;;